createdAt,value
2022-10-09T00:02:31.422Z,9.77
2022-10-09T00:06:03.845Z,9.10
2022-10-09T00:09:35.597Z,8.97
2022-10-09T00:13:07.526Z,8.53
2022-10-09T00:16:39.198Z,7.05
2022-10-09T00:20:11.617Z,6.07
2022-10-09T00:23:43.220Z,13.40
2022-10-09T00:27:15.011Z,8.80
2022-10-09T00:30:46.656Z,7.72
2022-10-09T00:34:18.448Z,7.20
2022-10-09T00:37:50.054Z,9.47
2022-10-09T00:41:27.764Z,8.02
2022-10-09T00:45:01.795Z,7.20
2022-10-09T00:48:34.036Z,9.23
2022-10-09T00:52:07.658Z,8.23
2022-10-09T00:55:40.413Z,6.07
2022-10-09T00:59:13.403Z,9.77
2022-10-09T01:02:45.385Z,7.23
2022-10-09T01:06:38.797Z,7.85
2022-10-09T01:10:30.632Z,8.05
2022-10-09T01:14:19.798Z,7.93
2022-10-09T01:18:02.024Z,7.00
2022-10-09T01:21:56.521Z,12.38
2022-10-09T01:25:40.249Z,11.40
2022-10-09T01:29:14.089Z,5.20
2022-10-09T01:32:51.093Z,8.00
2022-10-09T01:36:25.058Z,5.10
2022-10-09T01:39:58.255Z,6.50
2022-10-09T01:43:30.073Z,8.83
2022-10-09T01:47:02.448Z,7.67
2022-10-09T01:50:40.470Z,13.30
2022-10-09T01:54:16.764Z,10.60
2022-10-09T01:57:52.256Z,9.97
2022-10-09T02:01:33.755Z,8.37
2022-10-09T02:05:07.653Z,8.32
2022-10-09T02:08:41.057Z,7.28
2022-10-09T02:12:15.121Z,8.57
2022-10-09T02:15:57.520Z,8.77
2022-10-09T02:19:41.705Z,6.63
2022-10-09T02:23:15.647Z,9.20
2022-10-09T02:26:47.728Z,6.63
2022-10-09T02:30:20.847Z,8.77
2022-10-09T02:33:57.371Z,9.32
2022-10-09T02:37:29.251Z,8.52
2022-10-09T02:41:01.565Z,6.33
2022-10-09T02:44:33.739Z,7.75
2022-10-09T02:48:05.380Z,7.03
2022-10-09T02:51:37.237Z,8.20
2022-10-09T02:55:09.333Z,9.70
2022-10-09T02:58:41.314Z,10.52
2022-10-09T03:02:13.025Z,7.35
2022-10-09T03:05:45.726Z,5.33
2022-10-09T03:09:17.373Z,8.77
2022-10-09T03:12:49.570Z,7.38
2022-10-09T03:16:23.894Z,7.00
2022-10-09T03:19:55.807Z,8.10
2022-10-09T03:23:27.584Z,8.00
2022-10-09T03:26:59.407Z,7.97
2022-10-09T03:30:31.175Z,6.67
2022-10-09T03:34:03.294Z,8.65
2022-10-09T03:37:34.969Z,9.20
2022-10-09T03:41:07.350Z,7.03
2022-10-09T03:44:39.311Z,6.27
2022-10-09T03:48:12.478Z,11.15
2022-10-09T03:51:44.141Z,9.15
2022-10-09T03:55:16.615Z,8.50
2022-10-09T03:58:48.200Z,8.38
2022-10-09T04:02:20.131Z,9.95
2022-10-09T04:05:51.765Z,8.73
2022-10-09T04:09:23.869Z,9.37
2022-10-09T04:12:55.648Z,7.18
2022-10-09T04:16:27.517Z,7.68
2022-10-09T04:19:59.158Z,6.73
2022-10-09T04:23:31.286Z,6.25
2022-10-09T04:27:03.078Z,7.78
2022-10-09T04:30:35.032Z,9.43
2022-10-09T04:34:06.665Z,8.67
2022-10-09T04:37:38.540Z,8.30
2022-10-09T04:41:10.488Z,6.82
2022-10-09T04:44:42.327Z,6.90
2022-10-09T04:48:14.020Z,6.72
2022-10-09T04:51:45.891Z,9.77
2022-10-09T04:55:17.513Z,10.53
2022-10-09T04:58:50.379Z,5.65
2022-10-09T05:02:21.994Z,9.07
2022-10-09T05:05:53.844Z,11.55
2022-10-09T05:09:25.711Z,9.73
2022-10-09T05:12:58.406Z,6.50
2022-10-09T05:16:31.728Z,5.75
2022-10-09T05:20:03.918Z,7.83
2022-10-09T05:23:35.956Z,6.18
2022-10-09T05:27:07.856Z,7.55
2022-10-09T05:30:41.897Z,7.55
2022-10-09T05:34:13.728Z,7.17
2022-10-09T05:37:45.742Z,6.30
2022-10-09T05:41:19.376Z,9.45
2022-10-09T05:44:50.973Z,10.20
2022-10-09T05:48:23.088Z,5.75
2022-10-09T05:51:56.000Z,6.97
2022-10-09T05:55:28.380Z,9.00
2022-10-09T05:59:02.729Z,14.48
2022-10-09T06:02:34.654Z,6.00
2022-10-09T06:06:08.280Z,6.45
2022-10-09T06:09:40.101Z,8.07
2022-10-09T06:13:11.649Z,9.23
2022-10-09T06:16:46.039Z,8.20
2022-10-09T06:20:17.849Z,8.43
2022-10-09T06:23:51.789Z,8.65
2022-10-09T06:27:23.368Z,5.32
2022-10-09T06:31:02.910Z,6.20
2022-10-09T06:34:34.574Z,8.07
2022-10-09T06:38:06.589Z,9.93
2022-10-09T06:41:38.290Z,6.78
2022-10-09T06:45:10.310Z,5.30
2022-10-09T06:48:41.990Z,7.70
2022-10-09T06:52:13.900Z,8.60
2022-10-09T06:55:56.031Z,9.60
2022-10-09T06:59:27.862Z,5.75
2022-10-09T07:02:59.530Z,6.10
2022-10-09T07:06:32.538Z,7.15
2022-10-09T07:10:04.520Z,12.50
2022-10-09T07:13:37.148Z,11.25
2022-10-09T07:17:09.150Z,7.43
2022-10-09T07:20:41.345Z,8.77
2022-10-09T07:24:13.592Z,7.77
2022-10-09T07:27:45.458Z,9.05
2022-10-09T07:31:17.772Z,10.70
2022-10-09T07:34:49.684Z,8.73
2022-10-09T07:38:22.411Z,10.82
2022-10-09T07:41:54.224Z,10.30
2022-10-09T07:45:25.836Z,12.25
2022-10-09T07:48:58.828Z,9.53
2022-10-09T07:52:30.410Z,6.32
2022-10-09T07:56:02.289Z,6.68
2022-10-09T07:59:33.887Z,6.17
2022-10-09T08:03:05.769Z,7.60
2022-10-09T08:06:37.858Z,9.40
2022-10-09T08:10:10.205Z,8.95
2022-10-09T08:13:43.202Z,7.17
2022-10-09T08:17:16.626Z,7.70
2022-10-09T08:20:59.710Z,6.57
2022-10-09T08:24:32.101Z,6.72
2022-10-09T08:28:05.058Z,9.30
2022-10-09T08:31:37.105Z,12.13
2022-10-09T08:35:08.993Z,6.53
2022-10-09T08:38:48.763Z,10.57
2022-10-09T08:42:32.250Z,9.17
2022-10-09T08:46:11.127Z,8.23
2022-10-09T08:50:08.981Z,7.95
2022-10-09T08:53:58.720Z,6.50
2022-10-09T08:57:33.210Z,6.93
2022-10-09T09:01:12.578Z,11.33
2022-10-09T09:05:19.395Z,5.60
2022-10-09T09:09:22.260Z,6.50
2022-10-09T09:13:00.831Z,11.25
2022-10-09T09:16:48.461Z,10.93
2022-10-09T09:20:29.268Z,7.05
2022-10-09T09:24:05.301Z,7.28
2022-10-09T09:27:37.756Z,5.97
2022-10-09T09:31:24.233Z,8.53
2022-10-09T09:35:19.558Z,6.50
2022-10-09T09:39:35.399Z,8.07
2022-10-09T09:42:44.192Z,5.57
2022-10-09T09:46:19.472Z,8.02
2022-10-09T09:49:59.353Z,13.47
2022-10-09T09:53:39.713Z,7.88
2022-10-09T09:57:16.986Z,8.95
2022-10-09T10:01:01.402Z,5.77
2022-10-09T10:04:33.077Z,8.07
2022-10-09T10:08:20.617Z,5.07
2022-10-09T10:11:58.081Z,6.18
2022-10-09T10:15:34.008Z,5.30
2022-10-09T10:19:06.719Z,7.87
2022-10-09T10:22:38.740Z,6.15
2022-10-09T10:26:28.907Z,4.88
2022-10-09T10:30:04.624Z,9.30
2022-10-09T10:33:37.427Z,2.97
2022-10-09T10:37:15.395Z,6.05
2022-10-09T10:40:56.729Z,4.78
2022-10-09T10:45:04.143Z,5.40
2022-10-09T10:48:43.236Z,4.82
2022-10-09T10:52:41.053Z,6.00
2022-10-09T10:56:28.075Z,4.32
2022-10-09T11:00:11.527Z,8.77
2022-10-09T11:03:58.808Z,5.90
2022-10-09T11:07:42.714Z,7.10
2022-10-09T11:11:23.573Z,4.97
2022-10-09T11:15:19.376Z,3.88
2022-10-09T11:19:04.977Z,4.63
2022-10-09T11:22:52.719Z,6.57
2022-10-09T11:26:36.552Z,5.33
2022-10-09T11:30:14.465Z,7.65
2022-10-09T11:33:52.045Z,5.40
2022-10-09T11:37:30.082Z,7.32
2022-10-09T11:41:06.417Z,9.03
2022-10-09T11:45:04.926Z,5.30
2022-10-09T11:48:45.433Z,5.30
2022-10-09T11:52:27.594Z,3.83
2022-10-09T11:56:08.927Z,5.30
2022-10-09T11:59:42.606Z,5.57
2022-10-09T12:03:34.248Z,5.77
2022-10-09T12:07:11.242Z,5.55
2022-10-09T12:10:53.093Z,6.05
2022-10-09T12:14:28.246Z,5.22
2022-10-09T12:17:59.920Z,10.90
2022-10-09T12:21:40.471Z,5.35
2022-10-09T12:25:29.462Z,4.70
2022-10-09T12:29:02.736Z,6.65
2022-10-09T12:32:41.678Z,3.43
2022-10-09T12:36:24.405Z,6.10
2022-10-09T12:40:13.703Z,4.13
2022-10-09T12:43:46.668Z,5.57
2022-10-09T12:47:22.856Z,3.22
2022-10-09T12:50:55.841Z,5.43
2022-10-09T12:54:30.495Z,6.38
2022-10-09T12:58:06.921Z,5.85
2022-10-09T13:01:40.349Z,6.88
2022-10-09T13:05:12.292Z,8.97
2022-10-09T13:08:45.117Z,5.97
2022-10-09T13:12:23.034Z,2.75
2022-10-09T13:16:00.692Z,3.28
2022-10-09T13:19:35.411Z,4.95
2022-10-09T13:23:07.177Z,5.33
2022-10-09T13:26:42.635Z,6.57
2022-10-09T13:30:14.233Z,6.07
2022-10-09T13:33:46.890Z,6.00
2022-10-09T13:37:20.273Z,6.35
2022-10-09T13:40:52.246Z,4.63
2022-10-09T13:44:24.277Z,7.45
2022-10-09T13:47:56.709Z,8.23
2022-10-09T13:51:31.908Z,12.20
2022-10-09T13:55:05.298Z,8.02
2022-10-09T13:58:36.970Z,3.40
2022-10-09T14:02:10.909Z,7.18
2022-10-09T14:05:43.692Z,3.67
2022-10-09T14:09:15.589Z,7.90
2022-10-09T14:12:47.959Z,6.88
2022-10-09T14:16:19.991Z,6.00
2022-10-09T14:19:52.709Z,6.28
2022-10-09T14:23:24.813Z,5.20
2022-10-09T14:26:56.447Z,8.40
2022-10-09T14:30:28.374Z,4.73
2022-10-09T14:34:00.127Z,4.67
2022-10-09T14:37:47.152Z,3.22
2022-10-09T14:41:19.912Z,5.55
2022-10-09T14:44:53.498Z,8.05
2022-10-09T14:48:25.074Z,4.17
2022-10-09T14:51:58.581Z,5.03
2022-10-09T14:55:30.224Z,4.07
2022-10-09T14:59:02.631Z,4.43
2022-10-09T15:02:34.359Z,7.40
2022-10-09T15:06:09.103Z,3.33
2022-10-09T15:09:40.750Z,4.18
2022-10-09T15:13:12.553Z,4.38
2022-10-09T15:16:44.154Z,5.57
2022-10-09T15:20:16.335Z,9.30
2022-10-09T15:23:50.648Z,4.17
2022-10-09T15:27:22.486Z,3.90
2022-10-09T15:30:57.567Z,5.75
2022-10-09T15:34:30.802Z,5.43
2022-10-09T15:38:02.397Z,5.13
2022-10-09T15:41:37.328Z,7.03
2022-10-09T15:45:09.175Z,7.30
2022-10-09T15:48:42.338Z,4.75
2022-10-09T15:52:13.937Z,8.50
2022-10-09T15:55:48.495Z,6.73
2022-10-09T15:59:20.674Z,8.25
2022-10-09T16:02:52.813Z,9.50
2022-10-09T16:06:24.697Z,7.05
2022-10-09T16:09:57.160Z,7.33
2022-10-09T16:13:28.795Z,8.13
2022-10-09T16:17:00.654Z,16.42
2022-10-09T16:20:37.478Z,38.97
2022-10-09T16:24:09.361Z,20.87
2022-10-09T16:27:40.937Z,12.83
2022-10-09T16:31:24.150Z,22.52
2022-10-09T16:34:56.062Z,69.18
2022-10-09T16:38:27.855Z,59.50
2022-10-09T16:42:03.689Z,30.47
2022-10-09T16:45:35.608Z,28.63
2022-10-09T16:49:07.212Z,32.78
2022-10-09T16:52:39.028Z,154.67
2022-10-09T16:56:13.301Z,86.33
2022-10-09T16:59:46.131Z,59.30
2022-10-09T17:03:17.727Z,26.05
2022-10-09T17:06:49.563Z,29.13
2022-10-09T17:10:21.296Z,24.83
2022-10-09T17:13:56.691Z,31.10
2022-10-09T17:17:28.405Z,33.20
2022-10-09T17:21:03.193Z,91.63
2022-10-09T17:24:34.843Z,92.25
2022-10-09T17:28:08.161Z,96.68
2022-10-09T17:31:40.445Z,71.78
2022-10-09T17:35:12.256Z,26.73
2022-10-09T17:38:44.486Z,17.48
2022-10-09T17:42:16.541Z,24.65
2022-10-09T17:45:48.868Z,10.57
2022-10-09T17:49:20.696Z,17.13
2022-10-09T17:52:52.511Z,21.33
2022-10-09T17:56:25.153Z,14.52
2022-10-09T17:59:57.084Z,13.10
2022-10-09T18:03:29.317Z,13.03
2022-10-09T18:07:00.905Z,17.63
2022-10-09T18:10:32.824Z,14.93
2022-10-09T18:14:04.519Z,14.83
2022-10-09T18:17:36.398Z,17.47
2022-10-09T18:21:12.051Z,16.40
2022-10-09T18:24:43.935Z,12.88
2022-10-09T18:28:15.670Z,12.07
2022-10-09T18:31:47.551Z,12.47
2022-10-09T18:35:19.265Z,12.95
2022-10-09T18:38:55.675Z,13.98
2022-10-09T18:42:27.342Z,12.87
2022-10-09T18:46:00.774Z,14.20
2022-10-09T18:49:32.699Z,16.05
2022-10-09T18:53:04.764Z,16.60
2022-10-09T18:56:37.215Z,17.73
2022-10-09T19:00:10.099Z,17.50
2022-10-09T19:03:45.946Z,15.20
2022-10-09T19:07:21.349Z,12.27
2022-10-09T19:10:53.708Z,14.70
2022-10-09T19:14:25.608Z,14.25
2022-10-09T19:17:57.360Z,15.20
2022-10-09T19:21:29.357Z,18.67
2022-10-09T19:25:02.139Z,18.20
2022-10-09T19:28:37.853Z,16.25
2022-10-09T19:32:09.563Z,22.45
2022-10-09T19:35:46.831Z,22.40
2022-10-09T19:39:19.475Z,23.30
2022-10-09T19:42:51.276Z,21.83
2022-10-09T19:46:22.976Z,18.63
2022-10-09T19:49:54.967Z,23.33
2022-10-09T19:53:26.667Z,19.57
2022-10-09T19:56:58.668Z,23.00
2022-10-09T20:00:31.023Z,16.00
2022-10-09T20:04:07.640Z,19.57
2022-10-09T20:07:39.251Z,20.48
2022-10-09T20:11:13.071Z,14.73
2022-10-09T20:14:45.420Z,16.33
2022-10-09T20:18:17.197Z,18.67
2022-10-09T20:21:49.039Z,20.00
2022-10-09T20:25:20.955Z,18.67
2022-10-09T20:28:53.985Z,16.50
2022-10-09T20:32:25.969Z,15.47
2022-10-09T20:35:57.883Z,16.90
2022-10-09T20:39:31.121Z,18.20
2022-10-09T20:43:03.177Z,14.43
2022-10-09T20:46:37.266Z,15.43
2022-10-09T20:50:09.526Z,17.95
2022-10-09T20:53:41.602Z,17.25
2022-10-09T20:57:13.387Z,14.53
2022-10-09T21:00:45.206Z,15.73
2022-10-09T21:04:16.890Z,14.43
2022-10-09T21:07:48.986Z,16.63
2022-10-09T21:11:21.002Z,19.10
2022-10-09T21:14:53.392Z,16.25
2022-10-09T21:18:25.033Z,15.52
2022-10-09T21:21:56.855Z,14.20
2022-10-09T21:25:28.460Z,16.13
2022-10-09T21:29:00.388Z,15.18
2022-10-09T21:32:32.018Z,12.07
2022-10-09T21:36:10.506Z,14.87
2022-10-09T21:39:42.280Z,15.75
2022-10-09T21:43:14.120Z,14.23
2022-10-09T21:46:45.928Z,17.35
2022-10-09T21:50:18.270Z,17.47
2022-10-09T21:53:50.356Z,18.58
2022-10-09T21:57:22.210Z,20.13
2022-10-09T22:01:01.273Z,22.67
2022-10-09T22:04:33.354Z,25.70
2022-10-09T22:08:04.971Z,24.75
2022-10-09T22:11:36.793Z,22.02
2022-10-09T22:15:08.791Z,24.23
2022-10-09T22:18:42.458Z,23.07
2022-10-09T22:22:14.063Z,22.88
2022-10-09T22:25:57.151Z,21.63
2022-10-09T22:29:28.746Z,24.27
2022-10-09T22:33:00.801Z,27.42
2022-10-09T22:36:33.702Z,20.95
2022-10-09T22:40:06.193Z,20.40
2022-10-09T22:43:39.676Z,20.27
2022-10-09T22:47:11.534Z,22.52
2022-10-09T22:50:43.143Z,18.63
2022-10-09T22:54:15.004Z,20.87
2022-10-09T22:57:46.575Z,22.87
2022-10-09T23:01:25.075Z,18.92
2022-10-09T23:04:56.749Z,18.08
2022-10-09T23:08:28.581Z,23.40
2022-10-09T23:12:00.283Z,24.52
2022-10-09T23:15:36.789Z,22.65
2022-10-09T23:19:09.387Z,23.48
2022-10-09T23:22:42.784Z,21.73
2022-10-09T23:26:20.132Z,20.02
2022-10-09T23:29:52.028Z,18.80
2022-10-09T23:33:23.624Z,19.37
2022-10-09T23:36:55.476Z,16.98
2022-10-09T23:40:27.076Z,22.60
2022-10-09T23:43:58.992Z,19.30
2022-10-09T23:47:30.668Z,19.65
2022-10-09T23:51:02.823Z,24.40
2022-10-09T23:54:34.445Z,21.10
2022-10-09T23:58:06.263Z,16.27
